Time;durP1;ratioP1;P1;durP2;ratioP2;P2;SDS_P1;SDS_P2;PMS_P1;PMS_P2;Temp;Humidity;BMP_temperature;BMP_pressure;BME280_temperature;BME280_humidity;BME280_pressure;Samples;Min_cycle;Max_cycle;Signal;HPM_P1;HPM_P2
2022/11/12 00:03:46;;;;;;;2.90;1.53;;;;;;;;;;21226249;27;20211;-69
2022/11/12 00:14:06;;;;;;;2.87;1.50;;;;;;;;;;21208918;22;20776;-67
2022/11/12 00:24:27;;;;;;;2.77;1.30;;;;;;;;;;21075933;28;20238;-67
2022/11/12 00:34:47;;;;;;;2.53;1.37;;;;;;;;;;21076980;28;20216;-67
2022/11/12 00:45:08;;;;;;;1.97;1.03;;;;;;;;;;21074558;28;20698;-67
2022/11/12 00:55:29;;;;;;;8.80;4.37;;;;;;;;;;21084739;28;20245;-67
2022/11/12 01:05:49;;;;;;;3.90;2.20;;;;;;;;;;21057858;28;20200;-68
2022/11/12 01:16:10;;;;;;;3.70;1.80;;;;;;;;;;21071682;28;20204;-68
2022/11/12 01:26:31;;;;;;;3.17;1.77;;;;;;;;;;21071895;28;20254;-67
2022/11/12 01:36:51;;;;;;;2.60;1.57;;;;;;;;;;21071099;28;20244;-67
2022/11/12 01:47:18;;;;;;;2.60;1.70;;;7.90;99.90;;;;;;21069089;28;20225;-68
2022/11/12 01:57:48;;;;;;;2.90;1.57;;;7.80;99.90;;;;;;21068385;28;20220;-67
2022/11/12 02:08:12;;;;;;;3.03;1.70;;;7.80;99.90;;;;;;21069747;28;20197;-68
2022/11/12 02:18:32;;;;;;;2.90;1.40;;;;;;;;;;21067662;28;20216;-67
2022/11/12 02:28:52;;;;;;;4.27;1.27;;;;;;;;;;21062496;28;20233;-66
2022/11/12 02:39:13;;;;;;;2.13;1.23;;;;;;;;;;21067532;28;20679;-68
2022/11/12 02:49:33;;;;;;;2.83;1.40;;;;;;;;;;21050519;28;20277;-69
2022/11/12 02:59:53;;;;;;;2.97;1.63;;;;;;;;;;21067051;28;20216;-67
2022/11/12 03:10:14;;;;;;;2.93;1.43;;;;;;;;;;21073384;28;20209;-68
2022/11/12 03:20:34;;;;;;;2.73;1.60;;;;;;;;;;21081466;28;20625;-70
2022/11/12 03:30:58;;;;;;;2.93;1.50;;;;;;;;;;21093107;28;20256;-68
2022/11/12 03:41:18;;;;;;;4.07;2.00;;;;;;;;;;21125447;28;20280;-66
2022/11/12 03:51:39;;;;;;;3.47;1.93;;;;;;;;;;21145718;28;20220;-67
2022/11/12 04:01:59;;;;;;;5.20;1.97;;;;;;;;;;21147387;28;20216;-67
2022/11/12 04:22:58;;;;;;;4.07;2.27;;;;;;;;;;21153741;28;20224;-67
2022/11/12 04:33:19;;;;;;;3.50;1.70;;;;;;;;;;21075048;28;20269;-67
2022/11/12 04:54:18;;;;;;;4.33;2.20;;;;;;;;;;21073493;28;20253;-67
2022/11/12 05:04:38;;;;;;;3.43;1.80;;;;;;;;;;21071815;28;20192;-66
2022/11/12 05:14:58;;;;;;;3.13;2.00;;;;;;;;;;21076384;28;20217;-67
2022/11/12 05:25:19;;;;;;;5.90;2.17;;;;;;;;;;21071778;28;20258;-67
2022/11/12 05:35:39;;;;;;;2.87;1.40;;;;;;;;;;21070516;28;20204;-67
2022/11/12 05:46:00;;;;;;;3.97;2.00;;;;;;;;;;21069792;28;20205;-67
2022/11/12 05:56:20;;;;;;;4.07;2.10;;;;;;;;;;21069251;28;20391;-67
2022/11/12 06:06:41;;;;;;;4.97;2.10;;;;;;;;;;21068598;28;20230;-67
2022/11/12 06:17:01;;;;;;;3.50;2.23;;;;;;;;;;21082570;22;20240;-68
2022/11/12 06:27:22;;;;;;;3.30;1.70;;;;;;;;;;21022751;28;20220;-68
2022/11/12 06:37:45;;;;;;;4.40;2.07;;;7.80;99.90;;;;;;21035903;28;20224;-68
2022/11/12 06:48:05;;;;;;;3.07;1.80;;;;;;;;;;21030747;28;20208;-70
2022/11/12 06:58:27;;;;;;;4.03;1.80;;;;;;;;;;21065970;28;20297;-69
2022/11/12 07:08:50;;;;;;;3.47;1.67;;;;;;;;;;21045329;28;20212;-69
2022/11/12 07:19:10;;;;;;;2.70;1.70;;;;;;;;;;21035192;28;20301;-69
2022/11/12 07:29:31;;;;;;;21.33;15.70;;;;;;;;;;21050831;28;20250;-68
2022/11/12 07:39:52;;;;;;;3.60;2.30;;;;;;;;;;21029127;28;20224;-69
2022/11/12 07:50:12;;;;;;;3.03;1.97;;;;;;;;;;21050854;28;20269;-68
2022/11/12 08:00:33;;;;;;;2.53;1.70;;;;;;;;;;21033876;28;20219;-68
2022/11/12 08:10:57;;;;;;;3.87;1.47;;;7.90;99.90;;;;;;21048022;28;20217;-68
2022/11/12 08:21:18;;;;;;;2.73;1.83;;;7.40;99.90;;;;;;21044421;28;20228;-68
2022/11/12 08:31:39;;;;;;;3.57;2.40;;;;;;;;;;21069084;28;20220;-68
2022/11/12 08:42:00;;;;;;;2.87;1.70;;;;;;;;;;21074230;28;20266;-68
2022/11/12 08:52:20;;;;;;;2.93;2.10;;;;;;;;;;21051996;28;20212;-68
2022/11/12 09:02:41;;;;;;;3.23;2.23;;;;;;;;;;21060342;28;20270;-69
2022/11/12 09:13:02;;;;;;;5.30;2.37;;;;;;;;;;21058999;28;20204;-68
2022/11/12 09:23:22;;;;;;;4.43;2.87;;;;;;;;;;21072523;28;20740;-69
2022/11/12 09:33:43;;;;;;;5.93;2.97;;;;;;;;;;21052709;28;20209;-68
2022/11/12 09:44:19;;;;;;;6.00;2.83;;;;;;;;;;21047972;28;20582;-67
2022/11/12 09:54:42;;;;;;;6.97;3.40;;;;;;;;;;21045777;28;20220;-68
2022/11/12 10:05:23;;;;;;;5.20;3.23;;;8.10;99.90;;;;;;21050518;28;20312;-68
2022/11/12 10:26:33;;;;;;;6.40;2.73;;;;;;;;;;21050990;28;20249;-68
2022/11/12 10:37:10;;;;;;;7.20;3.60;;;8.20;99.90;;;;;;20986286;28;20348;-68
2022/11/12 10:47:37;;;;;;;4.43;2.63;;;8.10;99.90;;;;;;21049263;28;20265;-68
2022/11/12 10:58:03;;;;;;;7.27;3.53;;;;;;;;;;21031875;28;20220;-68
2022/11/12 11:08:40;;;;;;;5.93;3.17;;;;;;;;;;21033258;28;20261;-68
2022/11/12 11:19:05;;;;;;;5.53;2.97;;;8.30;99.90;;;;;;21023111;28;20290;-68
2022/11/12 11:29:26;;;;;;;8.23;3.80;;;;;;;;;;21043137;28;20212;-68
2022/11/12 11:39:52;;;;;;;3.93;2.93;;;;;;;;;;21075327;28;20224;-68
2022/11/12 11:50:15;;;;;;;4.80;2.90;;;;;;;;;;21042200;28;20262;-68
2022/11/12 12:00:54;;;;;;;6.60;3.70;;;8.40;99.90;;;;;;21054687;28;20639;-68
2022/11/12 12:11:20;;;;;;;6.60;3.07;;;;;;;;;;21052849;28;20261;-68
2022/11/12 12:21:45;;;;;;;6.73;3.90;;;8.40;99.90;;;;;;21056770;28;20224;-67
2022/11/12 12:32:10;;;;;;;5.37;2.90;;;;;;;;;;21039961;28;20205;-67
2022/11/12 12:42:37;;;;;;;5.50;3.47;;;;;;;;;;21051517;28;20767;-67
2022/11/12 12:53:24;;;;;;;6.67;3.23;;;;;;;;;;21054150;28;20967;-68
2022/11/12 13:04:07;;;;;;;7.20;3.37;;;;;;;;;;21052254;28;20220;-68
2022/11/12 13:14:33;;;;;;;5.83;3.87;;;8.50;99.90;;;;;;21044431;28;20223;-67
2022/11/12 13:25:00;;;;;;;5.50;3.30;;;;;;;;;;21053889;28;20224;-68
2022/11/12 13:35:33;;;;;;;5.20;3.27;;;;;;;;;;21057182;28;20232;-68
2022/11/12 13:46:24;;;;;;;3.80;2.57;;;8.40;99.90;;;;;;21040750;28;20610;-68
2022/11/12 13:56:45;;;;;;;5.07;3.13;;;;;;;;;;21039196;28;20220;-68
2022/11/12 14:07:19;;;;;;;5.57;3.17;;;;;;;;;;21078782;22;20227;-75
2022/11/12 14:17:50;;;;;;;4.63;2.80;;;;;;;;;;21140562;28;20236;-72
2022/11/12 14:28:28;;;;;;;6.93;3.07;;;;;;;;;;21126456;28;20619;-72
2022/11/12 14:38:51;;;;;;;5.80;3.63;;;;;;;;;;21203766;28;20219;-72
2022/11/12 14:49:11;;;;;;;5.70;3.60;;;;;;;;;;21150578;28;20199;-76
2022/11/12 14:59:32;;;;;;;5.10;3.27;;;;;;;;;;21148788;28;20240;-74
2022/11/12 15:09:52;;;;;;;6.87;4.37;;;;;;;;;;21160120;28;20682;-73
2022/11/12 15:20:14;;;;;;;7.13;4.67;;;;;;;;;;21164266;28;20540;-75
2022/11/12 15:30:34;;;;;;;7.23;4.33;;;;;;;;;;21129981;28;20199;-73
2022/11/12 15:40:56;;;;;;;5.57;3.97;;;;;;;;;;21147493;28;20739;-73
2022/11/12 15:51:17;;;;;;;6.60;3.57;;;;;;;;;;21160796;28;20395;-75
2022/11/12 16:01:37;;;;;;;4.37;3.30;;;;;;;;;;21143305;28;20215;-75
2022/11/12 16:11:57;;;;;;;4.63;3.10;;;;;;;;;;21128300;28;20235;-76
2022/11/12 16:22:18;;;;;;;5.27;3.47;;;;;;;;;;21144176;28;20227;-75
2022/11/12 16:32:38;;;;;;;6.33;3.70;;;;;;;;;;21131159;28;20268;-73
2022/11/12 16:42:59;;;;;;;4.77;3.10;;;;;;;;;;21132975;28;20220;-72
2022/11/12 16:53:19;;;;;;;6.20;3.70;;;;;;;;;;21147713;28;20220;-73
2022/11/12 17:03:39;;;;;;;6.03;3.47;;;;;;;;;;21126955;28;20249;-73
2022/11/12 17:14:00;;;;;;;5.03;3.20;;;;;;;;;;21136903;28;20208;-71
2022/11/12 17:24:20;;;;;;;4.47;2.87;;;;;;;;;;21127224;28;20249;-71
2022/11/12 17:34:40;;;;;;;4.93;3.27;;;;;;;;;;21140053;28;20253;-71
2022/11/12 17:45:00;;;;;;;8.03;3.67;;;;;;;;;;21145383;28;20241;-71
2022/11/12 17:55:20;;;;;;;5.63;3.77;;;;;;;;;;21114715;28;20620;-72
2022/11/12 18:05:41;;;;;;;6.10;3.37;;;;;;;;;;21142879;28;20228;-71
2022/11/12 18:16:02;;;;;;;4.70;2.77;;;;;;;;;;21105740;28;20276;-73
2022/11/12 18:26:23;;;;;;;4.33;2.53;;;;;;;;;;21146106;28;20276;-75
2022/11/12 18:36:44;;;;;;;3.90;2.50;;;7.70;99.90;;;;;;21132058;28;20260;-72
2022/11/12 18:47:04;;;;;;;3.77;2.30;;;;;;;;;;21160843;28;20257;-72
2022/11/12 18:57:24;;;;;;;6.77;2.37;;;;;;;;;;21160962;28;20226;-71
2022/11/12 19:07:45;;;;;;;3.63;2.10;;;;;;;;;;21160559;28;20235;-73
2022/11/12 19:18:06;;;;;;;4.27;2.73;;;;;;;;;;21073977;28;20734;-72
2022/11/12 19:28:27;;;;;;;3.73;2.33;;;8.10;99.90;;;;;;21072280;28;20288;-72
2022/11/12 19:38:47;;;;;;;4.50;2.00;;;;;;;;;;21100703;28;20743;-73
2022/11/12 19:49:08;;;;;;;3.90;1.93;;;;;;;;;;21156355;28;20269;-73
2022/11/12 19:59:28;;;;;;;3.50;2.03;;;;;;;;;;21137555;28;20284;-73
2022/11/12 20:09:48;;;;;;;3.90;2.07;;;;;;;;;;21149405;28;20216;-73
2022/11/12 20:20:10;;;;;;;4.60;2.23;;;;;;;;;;21149462;28;20305;-73
2022/11/12 20:30:30;;;;;;;3.13;1.67;;;;;;;;;;21155418;28;20551;-73
2022/11/12 20:40:56;;;;;;;3.17;1.80;;;;;;;;;;21153349;28;20219;-73
2022/11/12 20:51:18;;;;;;;2.80;1.77;;;;;;;;;;21146489;28;20204;-74
2022/11/12 21:01:39;;;;;;;5.13;2.40;;;;;;;;;;21150969;28;20238;-74
2022/11/12 21:11:59;;;;;;;2.93;2.07;;;;;;;;;;21140304;28;20219;-73
2022/11/12 21:22:20;;;;;;;5.43;1.87;;;;;;;;;;21138183;28;20543;-73
2022/11/12 21:32:40;;;;;;;3.17;1.83;;;;;;;;;;21179778;22;20223;-69
2022/11/12 21:43:01;;;;;;;2.83;1.70;;;;;;;;;;21108876;28;20220;-67
2022/11/12 21:53:21;;;;;;;6.23;2.13;;;;;;;;;;21133650;28;20232;-67
2022/11/12 22:03:42;;;;;;;2.60;1.60;;;;;;;;;;21138707;28;20243;-67
2022/11/12 22:14:02;;;;;;;4.63;2.00;;;;;;;;;;21120636;28;20572;-67
2022/11/12 22:24:23;;;;;;;3.33;1.93;;;;;;;;;;21120528;28;20698;-69
2022/11/12 22:34:44;;;;;;;2.90;1.60;;;;;;;;;;21120042;28;20204;-69
2022/11/12 22:45:05;;;;;;;3.30;2.17;;;7.50;99.90;;;;;;21119936;28;20245;-69
2022/11/12 22:55:25;;;;;;;3.57;1.70;;;;;;;;;;21105079;28;20211;-69
2022/11/12 23:05:46;;;;;;;3.40;1.93;;;;;;;;;;21119636;28;20184;-69
2022/11/12 23:16:11;;;;;;;2.80;1.67;;;;;;;;;;21118358;28;20276;-69
2022/11/12 23:26:32;;;;;;;3.50;2.23;;;;;;;;;;21123022;28;20253;-69
2022/11/12 23:36:52;;;;;;;3.73;2.43;;;;;;;;;;21133475;28;20227;-69
2022/11/12 23:47:13;;;;;;;3.27;1.97;;;;;;;;;;21132366;28;20208;-69
2022/11/12 23:57:34;;;;;;;3.67;2.00;;;;;;;;;;21131373;28;20714;-69
